Time;durP1;ratioP1;P1;durP2;ratioP2;P2;SDS_P1;SDS_P2;PMS_P1;PMS_P2;Temp;Humidity;BMP_temperature;BMP_pressure;BME280_temperature;BME280_humidity;BME280_pressure;Samples;Min_cycle;Max_cycle;Signal;HPM_P1;HPM_P2
2021/12/10 00:01:50;;;;;;;53.90;24.92;;;3.90;99.90;;;;;;4952211;28;20066;-89
2021/12/10 00:04:21;;;;;;;54.03;23.80;;;4.10;99.90;;;;;;4974953;28;20073;-89
2021/12/10 00:06:58;;;;;;;51.63;24.05;;;4.30;99.90;;;;;;4975479;28;20411;-89
2021/12/10 00:09:31;;;;;;;54.40;24.45;;;3.90;99.90;;;;;;4974937;28;20096;-88
2021/12/10 00:12:06;;;;;;;56.10;24.95;;;3.90;99.90;;;;;;4991207;28;20054;-89
2021/12/10 00:14:35;;;;;;;50.45;25.08;;;3.90;99.90;;;;;;4978645;28;20038;-89
2021/12/10 00:17:03;;;;;;;53.45;25.17;;;4.00;99.90;;;;;;4991570;28;20042;-89
2021/12/10 00:19:40;;;;;;;49.97;24.98;;;3.90;99.90;;;;;;4991191;28;20125;-89
2021/12/10 00:22:10;;;;;;;48.65;24.33;;;4.00;99.90;;;;;;4969780;28;20049;-89
2021/12/10 00:24:42;;;;;;;49.35;24.92;;;3.80;99.90;;;;;;4975057;28;20044;-89
2021/12/10 00:27:09;;;;;;;59.35;26.38;;;3.80;99.90;;;;;;4975445;28;20054;-89
2021/12/10 00:29:40;;;;;;;51.70;26.30;;;4.40;99.90;;;;;;4990974;28;20109;-89
2021/12/10 00:32:17;;;;;;;55.05;25.27;;;4.10;99.90;;;;;;4982875;28;20065;-88
2021/12/10 00:34:47;;;;;;;54.80;24.45;;;4.50;99.90;;;;;;4991354;28;20034;-89
2021/12/10 00:37:16;;;;;;;50.97;24.85;;;4.10;99.90;;;;;;4969591;28;20034;-89
2021/12/10 00:39:51;;;;;;;47.65;23.77;;;4.50;99.90;;;;;;4961016;28;20073;-88
2021/12/10 00:42:22;;;;;;;52.65;25.25;;;3.90;99.90;;;;;;4965870;28;20112;-89
2021/12/10 00:44:48;;;;;;;54.83;24.65;;;3.90;99.90;;;;;;4973637;28;20658;-89
2021/12/10 00:47:14;;;;;;;48.45;23.02;;;3.90;99.90;;;;;;4959312;28;20040;-89
2021/12/10 00:49:40;;;;;;;53.13;24.52;;;3.90;99.90;;;;;;4955941;28;20038;-89
2021/12/10 00:52:07;;;;;;;45.28;23.70;;;3.90;99.90;;;;;;4974852;28;20063;-89
2021/12/10 00:54:34;;;;;;;46.22;23.83;;;5.10;99.90;;;;;;4975213;28;20625;-89
2021/12/10 00:57:01;;;;;;;48.78;23.65;;;4.50;99.90;;;;;;4975332;28;20415;-89
2021/12/10 00:59:27;;;;;;;44.28;23.00;;;4.30;99.90;;;;;;4975397;28;20077;-88
2021/12/10 01:01:53;;;;;;;44.38;22.92;;;3.90;99.90;;;;;;4974071;28;20042;-89
2021/12/10 01:04:26;;;;;;;51.70;24.33;;;3.90;99.90;;;;;;4956806;28;20104;-89
2021/12/10 01:06:53;;;;;;;43.78;22.60;;;4.20;99.90;;;;;;4975033;28;20037;-89
2021/12/10 01:09:23;;;;;;;43.75;22.23;;;3.90;99.90;;;;;;4957970;28;20475;-89
2021/12/10 01:11:53;;;;;;;43.13;22.25;;;3.90;99.90;;;;;;4974386;28;20061;-89
2021/12/10 01:14:35;;;;;;;41.25;21.33;;;4.00;99.90;;;;;;4974860;28;20498;-89
2021/12/10 01:25:35;;;;;;;39.55;21.25;;;4.60;99.90;;;;;;4976606;28;20050;-89
2021/12/10 01:28:02;;;;;;;39.65;19.52;;;3.90;99.90;;;;;;4991990;28;20050;-89
2021/12/10 01:30:33;;;;;;;36.00;19.48;;;4.80;99.90;;;;;;4957610;28;20128;-88
2021/12/10 01:33:04;;;;;;;49.25;19.92;;;3.90;99.90;;;;;;4977274;28;20042;-89
2021/12/10 01:35:34;;;;;;;42.03;19.45;;;4.80;99.90;;;;;;4977522;28;20038;-89
2021/12/10 01:38:02;;;;;;;36.38;19.60;;;4.30;99.90;;;;;;4968895;28;20116;-89
2021/12/10 01:40:29;;;;;;;37.35;19.67;;;3.90;99.90;;;;;;4986982;28;20042;-89
2021/12/10 01:43:05;;;;;;;34.85;19.05;;;3.90;99.90;;;;;;4976727;28;20049;-89
2021/12/10 01:45:35;;;;;;;31.15;16.92;;;4.70;99.90;;;;;;4993760;28;20139;-89
2021/12/10 01:48:09;;;;;;;30.90;17.08;;;4.30;99.90;;;;;;4992763;28;20116;-89
2021/12/10 01:50:36;;;;;;;39.85;17.23;;;3.90;99.90;;;;;;4993673;28;20037;-89
2021/12/10 01:53:06;;;;;;;35.17;16.95;;;3.90;99.90;;;;;;4993972;28;20096;-89
2021/12/10 01:55:36;;;;;;;33.35;16.55;;;3.90;99.90;;;;;;4977788;28;20157;-89
2021/12/10 01:58:05;;;;;;;32.30;16.27;;;4.50;99.90;;;;;;4988322;28;20031;-89
2021/12/10 02:00:35;;;;;;;33.65;16.50;;;3.90;99.90;;;;;;4990636;28;20033;-88
2021/12/10 02:03:00;;;;;;;37.05;18.02;;;3.90;99.90;;;;;;4992797;28;20077;-89
2021/12/10 02:05:26;;;;;;;29.40;15.52;;;4.70;99.90;;;;;;4972319;28;20120;-88
2021/12/10 02:07:54;;;;;;;26.77;16.17;;;3.80;99.90;;;;;;4972610;28;20037;-88
2021/12/10 02:10:22;;;;;;;34.42;15.73;;;3.80;99.90;;;;;;4976240;28;20491;-89
2021/12/10 02:12:48;;;;;;;27.20;15.63;;;3.80;99.90;;;;;;4977067;28;20693;-89
2021/12/10 02:15:15;;;;;;;34.05;15.48;;;3.80;99.90;;;;;;4993516;28;20030;-89
2021/12/10 02:17:47;;;;;;;28.20;13.88;;;3.80;99.90;;;;;;4977217;28;20034;-89
2021/12/10 02:20:23;;;;;;;28.60;15.00;;;3.80;99.90;;;;;;4993296;28;20037;-89
2021/12/10 02:22:49;;;;;;;26.38;14.30;;;3.80;99.90;;;;;;4968093;28;20080;-88
2021/12/10 02:25:19;;;;;;;30.17;15.48;;;3.80;99.90;;;;;;4992942;28;20487;-89
2021/12/10 02:27:45;;;;;;;27.02;14.80;;;3.80;99.90;;;;;;4993201;28;20112;-89
2021/12/10 02:30:13;;;;;;;33.67;15.23;;;4.00;99.90;;;;;;4960985;28;20599;-89
2021/12/10 02:32:39;;;;;;;34.58;14.20;;;3.80;99.90;;;;;;4992554;28;20034;-89
2021/12/10 02:35:08;;;;;;;32.30;15.00;;;3.80;99.90;;;;;;4976701;28;20505;-89
2021/12/10 02:37:34;;;;;;;28.88;13.98;;;3.80;99.90;;;;;;4975382;28;20052;-89
2021/12/10 02:40:00;;;;;;;30.90;13.82;;;3.70;99.90;;;;;;4992934;28;20133;-88
2021/12/10 02:42:25;;;;;;;23.83;13.55;;;3.70;99.90;;;;;;4966745;28;20121;-89
2021/12/10 02:44:51;;;;;;;29.58;14.40;;;3.70;99.90;;;;;;4971701;28;20543;-89
2021/12/10 02:47:20;;;;;;;34.47;14.38;;;4.80;99.90;;;;;;4975791;28;20510;-89
2021/12/10 02:49:46;;;;;;;22.63;13.60;;;4.30;99.90;;;;;;4976697;28;20557;-89
2021/12/10 02:52:13;;;;;;;24.77;14.27;;;3.80;99.90;;;;;;4960411;28;20034;-89
2021/12/10 02:54:42;;;;;;;25.25;14.60;;;4.20;99.90;;;;;;4957459;28;20113;-89
2021/12/10 02:57:12;;;;;;;25.15;13.68;;;4.50;99.90;;;;;;4976500;28;20420;-89
2021/12/10 02:59:39;;;;;;;30.08;15.38;;;4.10;99.90;;;;;;4976642;28;20073;-89
2021/12/10 03:02:08;;;;;;;31.38;15.20;;;4.10;99.90;;;;;;4991890;28;20037;-88
2021/12/10 03:04:34;;;;;;;29.90;15.55;;;3.80;99.90;;;;;;4974173;28;21685;-89
2021/12/10 03:07:07;;;;;;;29.95;13.73;;;3.80;99.90;;;;;;4991942;28;20120;-88
2021/12/10 03:09:33;;;;;;;;;;;3.80;99.90;;;;;;4992872;28;20124;-88
2021/12/10 03:12:00;;;;;;;34.88;15.55;;;3.90;99.90;;;;;;4999023;28;20497;-88
2021/12/10 03:14:35;;;;;;;34.97;16.90;;;3.80;99.90;;;;;;4976644;28;20114;-89
2021/12/10 03:17:04;;;;;;;34.50;17.73;;;3.80;99.90;;;;;;4991017;28;20041;-89
2021/12/10 03:19:30;;;;;;;40.50;17.85;;;3.80;99.90;;;;;;4976075;28;20034;-88
2021/12/10 03:21:56;;;;;;;29.75;16.33;;;4.20;99.90;;;;;;4989766;28;20058;-88
2021/12/10 03:24:26;;;;;;;25.83;15.18;;;4.20;99.90;;;;;;4972130;28;20368;-88
2021/12/10 03:26:54;;;;;;;36.47;16.02;;;3.70;99.90;;;;;;4975707;28;20623;-88
2021/12/10 03:29:23;;;;;;;34.22;16.60;;;3.70;99.90;;;;;;4975763;28;20041;-89
2021/12/10 03:31:51;;;;;;;36.40;17.10;;;4.80;99.90;;;;;;4975769;28;20410;-88
2021/12/10 03:34:19;;;;;;;36.25;17.90;;;3.70;99.90;;;;;;4992015;28;20491;-88
2021/12/10 03:36:46;;;;;;;34.78;17.83;;;3.70;99.90;;;;;;4975715;28;20573;-88
2021/12/10 03:39:18;;;;;;;29.48;18.05;;;4.20;99.90;;;;;;4951289;28;20042;-89
2021/12/10 03:41:44;;;;;;;28.93;16.53;;;4.40;99.90;;;;;;4975153;28;20041;-88
2021/12/10 03:44:11;;;;;;;29.75;16.67;;;3.60;99.90;;;;;;4975616;28;20289;-88
2021/12/10 03:46:37;;;;;;;35.88;17.60;;;3.60;99.90;;;;;;4957544;28;20034;-89
2021/12/10 03:49:06;;;;;;;32.15;18.83;;;3.80;99.90;;;;;;4974748;28;20041;-89
2021/12/10 03:51:34;;;;;;;32.20;17.88;;;4.00;99.90;;;;;;4991255;28;20126;-89
2021/12/10 03:54:00;;;;;;;36.95;16.75;;;3.70;99.90;;;;;;4958876;28;20584;-89
2021/12/10 03:56:28;;;;;;;30.85;17.73;;;4.40;99.90;;;;;;4949705;28;20062;-89
2021/12/10 03:58:59;;;;;;;31.00;18.25;;;4.20;99.90;;;;;;4975196;28;20050;-88
2021/12/10 04:01:30;;;;;;;31.10;16.05;;;3.60;99.90;;;;;;4991781;28;20080;-88
2021/12/10 04:03:57;;;;;;;33.65;18.08;;;3.60;99.90;;;;;;4973281;28;20045;-88
2021/12/10 04:06:24;;;;;;;36.22;17.83;;;3.50;99.90;;;;;;4974127;28;20454;-88
2021/12/10 04:08:50;;;;;;;27.77;15.70;;;3.90;99.90;;;;;;4975312;28;20049;-88
2021/12/10 04:11:17;;;;;;;36.20;18.25;;;4.50;99.90;;;;;;4990999;28;20050;-88
2021/12/10 04:13:49;;;;;;;36.25;18.40;;;3.30;99.90;;;;;;4988406;28;20049;-88
2021/12/10 04:16:17;;;;;;;32.63;18.40;;;3.20;99.90;;;;;;4991292;28;20539;-88
2021/12/10 04:18:45;;;;;;;33.70;19.15;;;4.10;99.90;;;;;;4990606;28;20034;-88
2021/12/10 04:21:12;;;;;;;31.50;16.50;;;3.90;99.90;;;;;;4973439;28;20046;-89
2021/12/10 04:23:41;;;;;;;30.67;19.30;;;3.10;99.90;;;;;;4959051;28;20567;-88
2021/12/10 04:26:13;;;;;;;30.95;20.33;;;3.20;99.90;;;;;;4963240;28;20053;-88
2021/12/10 04:28:39;;;;;;;39.17;19.02;;;3.10;99.90;;;;;;4976035;28;20042;-87
2021/12/10 04:31:04;;;;;;;30.88;18.67;;;3.10;99.90;;;;;;4959939;28;20503;-89
2021/12/10 04:33:30;;;;;;;32.05;19.33;;;3.10;99.90;;;;;;4957131;28;20054;-89
2021/12/10 04:35:59;;;;;;;29.52;17.30;;;3.30;99.90;;;;;;4967375;28;20446;-89
2021/12/10 04:38:28;;;;;;;30.40;17.75;;;3.10;99.90;;;;;;4974327;28;20045;-88
2021/12/10 04:40:59;;;;;;;32.53;16.77;;;4.10;99.90;;;;;;4974973;28;20042;-88
2021/12/10 04:43:25;;;;;;;31.45;17.52;;;3.10;99.90;;;;;;4974648;28;20584;-88
2021/12/10 04:45:53;;;;;;;31.98;17.58;;;3.00;99.90;;;;;;4990935;28;20069;-88
2021/12/10 04:48:19;;;;;;;29.05;16.80;;;3.00;99.90;;;;;;4991366;28;20073;-88
2021/12/10 04:50:45;;;;;;;31.70;17.17;;;2.90;99.90;;;;;;4973516;28;20588;-88
2021/12/10 04:53:12;;;;;;;27.83;17.05;;;4.20;99.90;;;;;;4974241;28;20072;-88
2021/12/10 04:55:38;;;;;;;28.58;16.52;;;3.10;99.90;;;;;;4990661;28;20045;-87
2021/12/10 04:58:05;;;;;;;29.55;15.65;;;2.80;99.90;;;;;;4990912;28;20033;-88
2021/12/10 05:00:38;;;;;;;25.70;14.88;;;2.70;99.90;;;;;;4968111;28;20038;-89
2021/12/10 05:03:05;;;;;;;22.80;15.05;;;2.60;99.90;;;;;;4990527;28;20030;-88
2021/12/10 05:05:32;;;;;;;26.98;14.27;;;2.50;99.90;;;;;;4978066;28;20069;-88
2021/12/10 05:07:58;;;;;;;26.52;14.52;;;2.50;99.90;;;;;;4994223;28;20050;-88
2021/12/10 05:10:24;;;;;;;26.40;14.50;;;3.60;99.90;;;;;;4970802;28;20068;-88
2021/12/10 05:12:50;;;;;;;23.42;14.55;;;2.30;99.90;;;;;;4994022;28;20061;-86
2021/12/10 05:15:23;;;;;;;24.83;14.63;;;2.30;99.90;;;;;;4970725;28;20030;-87
2021/12/10 05:17:52;;;;;;;22.75;13.98;;;2.20;99.90;;;;;;4994523;28;20038;-88
2021/12/10 05:20:28;;;;;;;23.85;14.23;;;2.20;99.90;;;;;;4994114;28;20105;-88
2021/12/10 05:22:54;;;;;;;24.65;13.65;;;2.10;99.90;;;;;;4967884;28;20482;-88
2021/12/10 05:25:20;;;;;;;26.80;14.27;;;2.10;99.90;;;;;;4961812;28;20060;-87
2021/12/10 05:27:47;;;;;;;20.38;12.77;;;2.40;99.90;;;;;;4994260;28;20030;-87
2021/12/10 05:30:17;;;;;;;22.98;12.90;;;2.10;99.90;;;;;;4977470;28;20056;-87
2021/12/10 05:32:43;;;;;;;25.77;13.75;;;2.00;99.90;;;;;;4993775;28;20502;-87
2021/12/10 05:35:09;;;;;;;22.13;13.35;;;2.70;99.90;;;;;;4959397;28;20030;-87
2021/12/10 05:37:35;;;;;;;23.65;12.77;;;2.90;99.90;;;;;;4978056;28;20044;-86
2021/12/10 05:40:02;;;;;;;25.48;14.15;;;1.90;99.90;;;;;;4960854;28;20076;-86
2021/12/10 05:42:28;;;;;;;22.27;13.13;;;1.80;99.90;;;;;;4961499;28;20454;-86
2021/12/10 05:44:53;;;;;;;26.65;14.38;;;1.80;99.90;;;;;;4977554;28;20124;-86
2021/12/10 05:47:19;;;;;;;23.58;15.00;;;1.70;99.90;;;;;;4978031;28;20096;-86
2021/12/10 05:49:45;;;;;;;24.13;14.40;;;1.70;99.90;;;;;;4977400;28;20518;-87
2021/12/10 05:52:11;;;;;;;30.52;15.25;;;1.60;99.90;;;;;;4993850;28;20034;-87
2021/12/10 05:54:39;;;;;;;23.58;14.32;;;1.80;99.90;;;;;;4976555;28;20073;-87
2021/12/10 05:57:04;;;;;;;22.90;14.18;;;1.80;99.90;;;;;;4977173;28;20046;-86
2021/12/10 05:59:31;;;;;;;26.67;14.73;;;1.50;99.90;;;;;;4961207;28;20053;-87
2021/12/10 06:01:57;;;;;;;28.35;14.73;;;2.40;99.90;;;;;;4971099;28;20124;-86
2021/12/10 06:04:27;;;;;;;31.25;14.52;;;1.50;99.90;;;;;;4960940;28;20041;-86
2021/12/10 06:06:54;;;;;;;26.52;14.18;;;1.40;99.90;;;;;;4992779;28;20058;-86
2021/12/10 06:09:19;;;;;;;26.90;14.15;;;1.40;99.90;;;;;;4958139;28;20100;-86
2021/12/10 06:11:45;;;;;;;21.48;13.10;;;1.40;99.90;;;;;;4977063;28;20053;-86
2021/12/10 06:14:11;;;;;;;25.17;14.07;;;1.30;99.90;;;;;;4960910;28;20149;-86
2021/12/10 06:16:37;;;;;;;24.95;14.35;;;1.30;99.90;;;;;;4977094;28;20197;-86
2021/12/10 06:19:05;;;;;;;23.02;13.05;;;1.50;99.90;;;;;;4973897;28;20034;-86
2021/12/10 06:21:32;;;;;;;21.63;13.65;;;1.30;99.90;;;;;;4976708;28;20494;-86
2021/12/10 06:23:58;;;;;;;21.30;11.85;;;1.90;99.90;;;;;;4976824;28;20038;-86
2021/12/10 06:26:24;;;;;;;24.23;12.90;;;1.30;99.90;;;;;;4976740;28;20076;-86
2021/12/10 06:28:49;;;;;;;20.25;11.95;;;1.30;99.90;;;;;;4972635;28;20184;-86
2021/12/10 06:31:17;;;;;;;23.77;13.77;;;1.30;99.90;;;;;;4976389;28;20057;-86
2021/12/10 06:33:43;;;;;;;25.50;13.02;;;1.30;99.90;;;;;;4965434;28;20038;-86
2021/12/10 06:36:10;;;;;;;18.83;12.27;;;1.80;99.90;;;;;;4976826;28;20056;-86
2021/12/10 06:38:35;;;;;;;23.75;12.13;;;1.20;99.90;;;;;;4992829;28;20105;-88
2021/12/10 06:41:03;;;;;;;21.30;12.05;;;1.30;99.90;;;;;;4960162;28;20119;-86
2021/12/10 06:43:28;;;;;;;22.33;13.38;;;1.10;99.90;;;;;;4992704;28;20487;-86
2021/12/10 06:45:54;;;;;;;20.83;11.57;;;1.10;99.90;;;;;;4992370;28;20048;-86
2021/12/10 06:48:23;;;;;;;20.70;11.98;;;1.10;99.90;;;;;;4976452;28;20048;-86
2021/12/10 06:50:54;;;;;;;22.13;12.55;;;1.10;99.90;;;;;;4975638;28;20045;-86
2021/12/10 06:53:23;;;;;;;25.50;12.25;;;1.10;99.90;;;;;;4974133;28;20135;-86
2021/12/10 06:55:49;;;;;;;23.85;12.65;;;1.70;99.90;;;;;;4976445;28;20422;-86
2021/12/10 06:58:17;;;;;;;19.48;11.95;;;1.20;99.90;;;;;;4966275;28;20042;-86
2021/12/10 07:00:56;;;;;;;20.63;11.88;;;1.00;99.90;;;;;;4976750;28;20030;-86
2021/12/10 07:03:27;;;;;;;20.30;11.90;;;1.00;99.90;;;;;;4992249;28;20103;-86
2021/12/10 07:05:55;;;;;;;20.73;11.00;;;0.90;99.90;;;;;;4974162;28;20037;-86
2021/12/10 07:08:23;;;;;;;21.50;11.57;;;0.80;99.90;;;;;;4991696;28;20030;-86
2021/12/10 07:10:49;;;;;;;22.63;11.35;;;0.80;99.90;;;;;;4992623;28;20515;-85
2021/12/10 07:13:15;;;;;;;22.20;11.38;;;0.80;99.90;;;;;;4975382;28;20414;-86
2021/12/10 07:15:43;;;;;;;19.98;11.35;;;0.80;99.90;;;;;;4952291;28;20030;-86
2021/12/10 07:18:10;;;;;;;22.52;11.45;;;0.70;99.90;;;;;;4975272;28;20529;-85
2021/12/10 07:20:37;;;;;;;24.70;12.77;;;0.70;99.90;;;;;;4976385;28;20088;-86
2021/12/10 07:23:03;;;;;;;18.92;11.45;;;0.90;99.90;;;;;;4991188;28;20073;-86
2021/12/10 07:25:29;;;;;;;25.10;11.95;;;1.20;99.90;;;;;;4957821;28;20038;-86
2021/12/10 07:27:55;;;;;;;18.75;11.23;;;0.60;99.90;;;;;;4991703;28;20041;-86
2021/12/10 07:30:23;;;;;;;20.95;11.23;;;0.60;99.90;;;;;;4975282;28;20542;-86
2021/12/10 07:32:49;;;;;;;23.08;12.43;;;0.50;99.90;;;;;;4963633;28;20462;-86
2021/12/10 07:35:15;;;;;;;24.20;11.70;;;0.60;99.90;;;;;;4962058;28;20030;-86
2021/12/10 07:37:41;;;;;;;21.10;11.23;;;0.50;99.90;;;;;;4973094;28;20136;-86
2021/12/10 07:40:11;;;;;;;21.00;10.88;;;0.50;99.90;;;;;;4985011;28;20552;-86
2021/12/10 07:42:37;;;;;;;18.98;11.45;;;0.50;99.90;;;;;;4991080;28;20073;-86
2021/12/10 07:45:05;;;;;;;19.95;11.30;;;0.40;99.90;;;;;;4991404;28;20600;-86
2021/12/10 07:47:35;;;;;;;19.13;10.80;;;0.40;99.90;;;;;;4974763;28;20046;-86
2021/12/10 07:50:01;;;;;;;19.17;11.02;;;0.40;99.90;;;;;;4991210;28;20042;-86
2021/12/10 07:52:27;;;;;;;19.33;11.05;;;0.40;99.90;;;;;;4991053;28;20038;-86
2021/12/10 07:54:54;;;;;;;21.15;11.20;;;0.40;99.90;;;;;;4958245;28;20037;-86
2021/12/10 07:57:22;;;;;;;19.65;11.02;;;0.50;99.90;;;;;;4975133;28;20423;-86
2021/12/10 07:59:49;;;;;;;18.45;11.60;;;0.50;99.90;;;;;;4969969;28;20124;-86
2021/12/10 08:02:17;;;;;;;19.33;11.50;;;0.50;99.90;;;;;;4946356;28;20042;-86
2021/12/10 08:04:43;;;;;;;23.85;12.32;;;0.50;99.90;;;;;;4972606;28;20057;-86
2021/12/10 08:07:10;;;;;;;20.83;10.82;;;0.70;99.90;;;;;;4944372;28;20093;-86
2021/12/10 08:09:35;;;;;;;20.02;11.55;;;0.60;99.90;;;;;;4966377;28;20134;-86
2021/12/10 08:12:02;;;;;;;20.58;10.45;;;0.60;99.90;;;;;;4991444;28;20133;-85
2021/12/10 08:14:28;;;;;;;21.48;10.88;;;0.70;99.90;;;;;;4965384;28;20133;-86
2021/12/10 08:16:53;;;;;;;19.00;10.43;;;0.70;99.90;;;;;;4957116;28;20121;-86
2021/12/10 08:19:19;;;;;;;18.15;10.25;;;1.80;99.90;;;;;;4974641;28;20907;-86
2021/12/10 08:21:45;;;;;;;19.83;10.68;;;1.50;99.90;;;;;;4974863;28;20042;-86
2021/12/10 08:24:11;;;;;;;17.27;9.77;;;1.40;99.90;;;;;;4974566;28;20402;-86
2021/12/10 08:26:38;;;;;;;17.45;9.90;;;0.70;99.90;;;;;;4971514;28;20038;-85
2021/12/10 08:29:06;;;;;;;19.67;10.55;;;1.80;99.90;;;;;;4974470;28;20123;-86
2021/12/10 08:31:32;;;;;;;20.33;10.15;;;0.70;99.90;;;;;;4964301;28;20034;-88
2021/12/10 08:33:59;;;;;;;17.50;9.63;;;0.80;99.90;;;;;;4973519;28;20046;-91
2021/12/10 08:36:27;;;;;;;18.67;10.40;;;1.90;99.90;;;;;;4991775;28;20042;-94
2021/12/10 08:38:53;;;;;;;19.35;10.07;;;1.20;99.90;;;;;;4964546;28;20042;-94
2021/12/10 08:41:22;;;;;;;20.05;10.50;;;2.00;99.90;;;;;;4965983;28;20046;-94
2021/12/10 08:43:50;;;;;;;18.80;9.55;;;2.00;99.90;;;;;;4982174;28;20654;-93
2021/12/10 08:46:17;;;;;;;17.85;9.60;;;1.70;99.90;;;;;;4965872;28;20045;-91
2021/12/10 08:48:44;;;;;;;15.52;9.00;;;1.40;99.90;;;;;;4954795;28;20062;-91
2021/12/10 08:51:20;;;;;;;14.23;8.68;;;2.60;99.90;;;;;;4966121;28;20038;-89
2021/12/10 08:53:46;;;;;;;12.63;9.00;;;1.50;99.90;;;;;;4986005;28;20084;-90
2021/12/10 08:56:11;;;;;;;16.23;9.45;;;1.70;99.90;;;;;;4966477;28;21072;-91
2021/12/10 08:58:37;;;;;;;17.73;9.25;;;3.30;99.90;;;;;;4967845;28;20045;-91
2021/12/10 09:01:09;;;;;;;14.70;9.10;;;2.70;99.90;;;;;;4952182;28;20049;-91
2021/12/10 09:03:35;;;;;;;13.35;8.48;;;4.00;99.90;;;;;;4984839;28;20038;-90
2021/12/10 09:06:03;;;;;;;14.45;8.00;;;3.70;99.90;;;;;;4968792;28;20040;-91
2021/12/10 09:08:29;;;;;;;12.23;8.35;;;4.70;99.90;;;;;;4968678;28;20053;-92
2021/12/10 09:10:55;;;;;;;11.45;7.80;;;4.50;99.90;;;;;;4963537;28;20410;-89
2021/12/10 09:13:21;;;;;;;11.00;7.93;;;4.80;99.90;;;;;;4964131;28;20035;-92
2021/12/10 09:15:52;;;;;;;11.27;7.88;;;5.80;99.90;;;;;;4955632;28;20479;-91
2021/12/10 09:18:18;;;;;;;12.57;8.15;;;5.30;99.90;;;;;;4979070;28;20080;-92
2021/12/10 09:20:48;;;;;;;12.07;7.40;;;5.50;99.90;;;;;;4939421;28;20117;-90
2021/12/10 09:23:18;;;;;;;11.65;7.68;;;5.40;99.90;;;;;;4964455;28;20541;-90
2021/12/10 09:25:44;;;;;;;12.55;7.95;;;5.50;99.90;;;;;;4979176;28;20048;-90
2021/12/10 09:28:10;;;;;;;13.13;7.20;;;6.20;99.90;;;;;;4963766;28;20542;-90
2021/12/10 09:30:38;;;;;;;12.50;7.07;;;5.50;99.90;;;;;;4963348;28;20030;-91
2021/12/10 09:33:04;;;;;;;10.65;7.60;;;5.60;99.90;;;;;;4978580;28;20491;-90
2021/12/10 09:35:33;;;;;;;11.18;7.65;;;5.80;99.90;;;;;;4965070;28;20056;-91
2021/12/10 09:37:59;;;;;;;10.82;7.68;;;5.50;99.90;;;;;;4978121;28;20503;-90
2021/12/10 09:40:30;;;;;;;10.15;7.75;;;6.40;99.90;;;;;;4978926;28;20347;-90
2021/12/10 09:42:56;;;;;;;10.75;7.22;;;5.80;99.90;;;;;;4964480;28;21187;-89
2021/12/10 09:45:26;;;;;;;10.23;6.90;;;6.60;99.90;;;;;;4946922;28;20046;-87
2021/12/10 09:47:52;;;;;;;11.35;6.68;;;6.00;99.90;;;;;;4965249;28;20410;-86
2021/12/10 09:50:21;;;;;;;11.05;7.55;;;5.40;99.90;;;;;;4961705;28;20038;-91
2021/12/10 09:52:48;;;;;;;10.48;7.28;;;4.80;99.90;;;;;;4960217;28;20093;-89
2021/12/10 09:55:16;;;;;;;10.52;6.80;;;5.70;99.90;;;;;;4941192;28;20048;-88
2021/12/10 09:57:43;;;;;;;10.35;6.97;;;4.60;99.90;;;;;;4963418;28;20111;-88
2021/12/10 10:00:35;;;;;;;12.48;7.00;;;4.60;99.90;;;;;;4962891;28;20037;-88
2021/12/10 10:03:02;;;;;;;11.57;7.00;;;4.50;99.90;;;;;;4978745;28;20387;-88
2021/12/10 10:05:31;;;;;;;9.40;6.45;;;4.70;99.90;;;;;;4979588;28;20359;-88
2021/12/10 10:08:00;;;;;;;11.93;6.53;;;4.20;99.90;;;;;;4963574;28;20372;-88
2021/12/10 10:10:28;;;;;;;10.48;7.25;;;4.90;99.90;;;;;;4980397;28;20046;-89
2021/12/10 10:12:56;;;;;;;12.82;6.50;;;4.10;99.90;;;;;;4944887;28;20046;-91
2021/12/10 10:15:31;;;;;;;9.35;6.32;;;4.00;99.90;;;;;;4934450;28;20033;-89
2021/12/10 10:17:59;;;;;;;12.38;7.22;;;4.00;99.90;;;;;;4977845;28;20034;-90
2021/12/10 10:20:28;;;;;;;10.70;6.60;;;3.80;99.90;;;;;;4963782;28;20038;-91
2021/12/10 10:22:53;;;;;;;14.20;7.05;;;3.60;99.90;;;;;;4978695;28;20809;-92
2021/12/10 10:25:23;;;;;;;12.18;7.18;;;3.50;99.90;;;;;;4963107;28;20045;-89
2021/12/10 10:27:49;;;;;;;13.90;7.13;;;3.40;99.90;;;;;;4963234;28;20048;-89
2021/12/10 10:30:41;;;;;;;12.52;6.50;;;3.40;99.90;;;;;;4945622;28;20076;-87
2021/12/10 10:33:10;;;;;;;8.87;6.07;;;3.30;99.90;;;;;;4962378;28;20450;-86
2021/12/10 10:35:43;;;;;;;11.18;6.82;;;3.30;99.90;;;;;;4980059;28;20037;-86
2021/12/10 10:38:12;;;;;;;9.35;6.30;;;3.30;99.90;;;;;;4963215;28;20463;-87
2021/12/10 10:40:44;;;;;;;9.57;6.07;;;4.00;99.90;;;;;;4959809;28;20163;-88
2021/12/10 10:43:10;;;;;;;11.63;6.35;;;3.30;99.90;;;;;;4981489;28;20057;-90
2021/12/10 10:45:38;;;;;;;8.38;5.50;;;4.50;99.90;;;;;;4942374;28;20042;-87
2021/12/10 10:48:06;;;;;;;11.23;6.07;;;3.30;99.90;;;;;;4956454;28;20069;-88
2021/12/10 10:50:37;;;;;;;10.50;6.10;;;3.40;99.90;;;;;;4973480;28;20038;-89
2021/12/10 10:53:09;;;;;;;8.63;5.20;;;4.10;99.90;;;;;;4957303;28;20387;-88
2021/12/10 10:55:39;;;;;;;11.48;6.25;;;3.50;99.90;;;;;;4974600;28;20040;-90
2021/12/10 10:58:07;;;;;;;9.00;5.88;;;3.50;99.90;;;;;;4958099;28;21472;-90
2021/12/10 11:00:45;;;;;;;9.20;5.88;;;3.60;99.90;;;;;;4956759;28;20503;-90
2021/12/10 11:03:16;;;;;;;11.10;6.97;;;3.70;99.90;;;;;;4974229;28;20416;-89
2021/12/10 11:05:56;;;;;;;8.77;5.45;;;4.00;99.90;;;;;;4957125;28;20077;-89
2021/12/10 11:08:43;;;;;;;7.97;5.32;;;3.90;99.90;;;;;;4953455;28;20499;-89
2021/12/10 11:11:24;;;;;;;10.23;6.10;;;3.90;99.90;;;;;;4979300;28;20546;-89
2021/12/10 11:14:05;;;;;;;10.85;5.20;;;4.20;99.90;;;;;;4991558;28;20491;-89
2021/12/10 11:16:32;;;;;;;9.82;5.60;;;4.20;99.90;;;;;;4991685;28;20070;-89
2021/12/10 11:19:01;;;;;;;8.38;5.60;;;4.20;99.90;;;;;;4959606;28;20076;-89
2021/12/10 11:21:44;;;;;;;9.10;5.75;;;4.10;99.90;;;;;;4976159;28;20033;-89
2021/12/10 11:24:16;;;;;;;10.60;5.80;;;4.30;99.90;;;;;;4989603;28;20045;-88
2021/12/10 11:26:54;;;;;;;7.32;5.00;;;5.00;99.90;;;;;;4973524;28;20064;-89
2021/12/10 11:29:48;;;;;;;9.38;4.90;;;4.10;99.90;;;;;;4975227;28;20049;-89
2021/12/10 11:32:19;;;;;;;8.30;4.75;;;4.20;99.90;;;;;;4989984;28;20164;-89
2021/12/10 11:34:53;;;;;;;8.35;5.03;;;4.20;99.90;;;;;;4987433;28;20082;-89
2021/12/10 11:37:50;;;;;;;6.30;4.57;;;4.20;99.90;;;;;;4975517;28;20445;-88
2021/12/10 11:40:41;;;;;;;8.40;4.50;;;4.20;99.90;;;;;;4990728;28;20116;-88
2021/12/10 11:46:05;;;;;;;9.25;4.72;;;4.10;99.90;;;;;;4991963;28;20053;-88
2021/12/10 11:49:00;;;;;;;7.30;4.55;;;4.10;99.90;;;;;;4991201;28;20037;-88
2021/12/10 11:51:30;;;;;;;6.65;4.57;;;4.10;99.90;;;;;;4975677;28;20160;-88
2021/12/10 11:53:59;;;;;;;6.43;4.30;;;4.50;99.90;;;;;;4975291;28;20045;-89
2021/12/10 11:56:36;;;;;;;9.05;4.13;;;5.00;99.90;;;;;;4993334;28;20045;-88
2021/12/10 11:59:05;;;;;;;8.20;4.68;;;3.30;99.90;;;;;;4990349;28;20105;-88
2021/12/10 12:01:31;;;;;;;11.43;5.10;;;4.30;99.90;;;;;;4976485;28;20379;-87
2021/12/10 12:03:57;;;;;;;6.60;4.05;;;5.00;99.90;;;;;;4972696;28;20045;-87
2021/12/10 12:06:24;;;;;;;5.97;3.85;;;4.20;99.90;;;;;;4975980;28;20038;-87
2021/12/10 12:08:50;;;;;;;5.68;3.72;;;4.50;99.90;;;;;;4958922;28;20042;-87
2021/12/10 12:11:15;;;;;;;8.18;4.20;;;4.20;99.90;;;;;;4991553;28;20176;-87
2021/12/10 12:13:43;;;;;;;9.45;4.28;;;4.90;99.90;;;;;;4975453;28;20041;-87
2021/12/10 12:16:16;;;;;;;7.00;3.97;;;5.50;99.90;;;;;;4991785;28;20034;-87
2021/12/10 12:18:53;;;;;;;8.98;4.05;;;4.70;99.90;;;;;;4991058;28;20053;-88
2021/12/10 12:27:14;;;;;;;7.78;3.95;;;4.60;99.90;;;;;;4992202;28;20658;-87
2021/12/10 12:29:49;;;;;;;6.80;3.70;;;4.90;99.90;;;;;;4975768;28;20042;-88
2021/12/10 12:32:19;;;;;;;5.35;3.78;;;4.90;99.90;;;;;;4992526;28;20395;-88
2021/12/10 12:34:45;;;;;;;6.78;4.38;;;5.00;99.90;;;;;;4975835;28;20449;-88
2021/12/10 12:37:14;;;;;;;6.95;4.57;;;6.00;99.90;;;;;;4957088;28;20550;-88
2021/12/10 12:39:59;;;;;;;14.20;5.07;;;5.20;99.90;;;;;;4972925;28;20045;-87
2021/12/10 12:42:35;;;;;;;6.65;4.55;;;5.10;99.90;;;;;;4975627;28;20092;-86
2021/12/10 12:45:24;;;;;;;8.32;4.63;;;5.20;99.90;;;;;;4971202;28;20113;-86
2021/12/10 12:47:52;;;;;;;5.30;3.42;;;5.20;99.90;;;;;;4988928;28;20411;-85
2021/12/10 12:50:29;;;;;;;8.52;4.05;;;5.20;99.90;;;;;;4989727;28;20049;-86
2021/12/10 12:53:02;;;;;;;5.25;3.13;;;5.20;99.90;;;;;;4974763;28;20100;-86
2021/12/10 12:55:53;;;;;;;10.13;3.60;;;5.30;99.90;;;;;;4989889;28;20041;-85
2021/12/10 12:58:32;;;;;;;11.05;4.68;;;5.30;99.90;;;;;;4985373;28;20545;-85
2021/12/10 13:01:10;;;;;;;8.25;4.55;;;5.40;99.90;;;;;;4974014;28;20046;-86
2021/12/10 13:04:07;;;;;;;8.70;3.97;;;5.10;99.90;;;;;;4974534;28;20096;-85
2021/12/10 13:06:54;;;;;;;8.57;4.00;;;5.00;99.90;;;;;;4989633;28;20042;-86
2021/12/10 13:09:20;;;;;;;5.75;3.45;;;4.90;99.90;;;;;;4989706;28;20038;-88
2021/12/10 13:12:07;;;;;;;8.38;4.07;;;4.90;99.90;;;;;;4991749;28;20062;-87